sensor_id;sensor_type;location;lat;lon;timestamp;temperature;humidity
14739;DHT22;7461;52.440;13.540;2023-06-10T00:01:44;16.50;99.90
14739;DHT22;7461;52.440;13.540;2023-06-10T00:04:12;16.50;99.90
14739;DHT22;7461;52.440;13.540;2023-06-10T00:06:41;16.50;99.90
14739;DHT22;7461;52.440;13.540;2023-06-10T00:09:09;16.50;99.90
14739;DHT22;7461;52.440;13.540;2023-06-10T00:11:36;16.50;99.90
14739;DHT22;7461;52.440;13.540;2023-06-10T00:14:05;16.40;99.90
14739;DHT22;7461;52.440;13.540;2023-06-10T00:16:32;16.40;99.90
14739;DHT22;7461;52.440;13.540;2023-06-10T00:18:59;16.40;99.90
14739;DHT22;7461;52.440;13.540;2023-06-10T00:21:27;16.30;99.90
14739;DHT22;7461;52.440;13.540;2023-06-10T00:23:55;16.30;99.90
14739;DHT22;7461;52.440;13.540;2023-06-10T00:26:22;16.20;99.90
14739;DHT22;7461;52.440;13.540;2023-06-10T00:28:49;16.20;99.90
14739;DHT22;7461;52.440;13.540;2023-06-10T00:31:16;16.20;99.90
14739;DHT22;7461;52.440;13.540;2023-06-10T00:33:43;16.10;99.90
14739;DHT22;7461;52.440;13.540;2023-06-10T00:36:10;16.10;99.90
14739;DHT22;7461;52.440;13.540;2023-06-10T00:38:37;16.10;99.90
14739;DHT22;7461;52.440;13.540;2023-06-10T00:41:07;16.10;99.90
14739;DHT22;7461;52.440;13.540;2023-06-10T00:43:34;16.00;99.90
14739;DHT22;7461;52.440;13.540;2023-06-10T00:46:01;16.00;99.90
14739;DHT22;7461;52.440;13.540;2023-06-10T00:48:30;16.00;99.90
14739;DHT22;7461;52.440;13.540;2023-06-10T00:50:57;16.00;99.90
14739;DHT22;7461;52.440;13.540;2023-06-10T00:53:24;16.00;99.90
14739;DHT22;7461;52.440;13.540;2023-06-10T00:55:51;16.00;99.90
14739;DHT22;7461;52.440;13.540;2023-06-10T00:58:21;16.00;99.90
14739;DHT22;7461;52.440;13.540;2023-06-10T01:00:48;16.00;99.90
14739;DHT22;7461;52.440;13.540;2023-06-10T01:03:15;16.00;99.90
14739;DHT22;7461;52.440;13.540;2023-06-10T01:05:43;15.90;99.90
14739;DHT22;7461;52.440;13.540;2023-06-10T01:08:16;15.90;99.90
14739;DHT22;7461;52.440;13.540;2023-06-10T01:10:50;15.90;99.90
14739;DHT22;7461;52.440;13.540;2023-06-10T01:13:20;15.80;99.90
14739;DHT22;7461;52.440;13.540;2023-06-10T01:15:50;15.80;99.90
14739;DHT22;7461;52.440;13.540;2023-06-10T01:18:17;15.70;99.90
14739;DHT22;7461;52.440;13.540;2023-06-10T01:20:44;15.80;99.90
14739;DHT22;7461;52.440;13.540;2023-06-10T01:23:13;15.70;99.90
14739;DHT22;7461;52.440;13.540;2023-06-10T01:25:41;15.70;99.90
14739;DHT22;7461;52.440;13.540;2023-06-10T01:28:12;15.60;99.90
14739;DHT22;7461;52.440;13.540;2023-06-10T01:30:45;15.60;99.90
14739;DHT22;7461;52.440;13.540;2023-06-10T01:33:18;15.60;99.90
14739;DHT22;7461;52.440;13.540;2023-06-10T01:35:47;15.60;99.90
14739;DHT22;7461;52.440;13.540;2023-06-10T01:38:17;15.60;99.90
14739;DHT22;7461;52.440;13.540;2023-06-10T01:40:46;15.60;99.90
14739;DHT22;7461;52.440;13.540;2023-06-10T01:43:13;15.50;99.90
14739;DHT22;7461;52.440;13.540;2023-06-10T01:45:40;15.50;99.90
14739;DHT22;7461;52.440;13.540;2023-06-10T01:48:07;15.50;99.90
14739;DHT22;7461;52.440;13.540;2023-06-10T01:50:34;15.50;99.90
14739;DHT22;7461;52.440;13.540;2023-06-10T01:53:01;15.50;99.90
14739;DHT22;7461;52.440;13.540;2023-06-10T01:55:29;15.40;99.90
14739;DHT22;7461;52.440;13.540;2023-06-10T01:57:56;15.40;99.90
14739;DHT22;7461;52.440;13.540;2023-06-10T02:00:23;15.40;99.90
14739;DHT22;7461;52.440;13.540;2023-06-10T02:02:50;15.40;99.90
14739;DHT22;7461;52.440;13.540;2023-06-10T02:05:17;15.40;99.90
14739;DHT22;7461;52.440;13.540;2023-06-10T02:07:44;15.30;99.90
14739;DHT22;7461;52.440;13.540;2023-06-10T02:10:11;15.30;99.90
14739;DHT22;7461;52.440;13.540;2023-06-10T02:12:39;15.30;99.90
14739;DHT22;7461;52.440;13.540;2023-06-10T02:15:06;15.30;99.90
14739;DHT22;7461;52.440;13.540;2023-06-10T02:17:33;15.30;99.90
14739;DHT22;7461;52.440;13.540;2023-06-10T02:20:00;15.20;99.90
14739;DHT22;7461;52.440;13.540;2023-06-10T02:22:32;15.30;99.90
14739;DHT22;7461;52.440;13.540;2023-06-10T02:24:59;15.20;99.90
14739;DHT22;7461;52.440;13.540;2023-06-10T02:27:26;15.10;99.90
14739;DHT22;7461;52.440;13.540;2023-06-10T02:29:55;15.20;99.90
14739;DHT22;7461;52.440;13.540;2023-06-10T02:32:22;15.20;99.90
14739;DHT22;7461;52.440;13.540;2023-06-10T02:34:49;15.10;99.90
14739;DHT22;7461;52.440;13.540;2023-06-10T02:37:16;15.10;99.90
14739;DHT22;7461;52.440;13.540;2023-06-10T02:39:43;15.10;99.90
14739;DHT22;7461;52.440;13.540;2023-06-10T02:42:10;15.00;99.90
14739;DHT22;7461;52.440;13.540;2023-06-10T02:44:37;15.10;99.90
14739;DHT22;7461;52.440;13.540;2023-06-10T02:47:06;15.10;99.90
14739;DHT22;7461;52.440;13.540;2023-06-10T02:49:33;15.00;99.90
14739;DHT22;7461;52.440;13.540;2023-06-10T02:52:00;15.00;99.90
14739;DHT22;7461;52.440;13.540;2023-06-10T02:54:27;15.00;99.90
14739;DHT22;7461;52.440;13.540;2023-06-10T02:56:54;15.00;99.90
14739;DHT22;7461;52.440;13.540;2023-06-10T02:59:21;15.00;99.90
14739;DHT22;7461;52.440;13.540;2023-06-10T03:01:48;15.00;99.90
14739;DHT22;7461;52.440;13.540;2023-06-10T03:04:17;15.00;99.90
14739;DHT22;7461;52.440;13.540;2023-06-10T03:06:44;14.90;99.90
14739;DHT22;7461;52.440;13.540;2023-06-10T03:09:12;14.90;99.90
14739;DHT22;7461;52.440;13.540;2023-06-10T03:11:39;14.90;99.90
14739;DHT22;7461;52.440;13.540;2023-06-10T03:14:06;14.90;99.90
14739;DHT22;7461;52.440;13.540;2023-06-10T03:16:32;14.90;99.90
14739;DHT22;7461;52.440;13.540;2023-06-10T03:19:00;14.90;99.90
14739;DHT22;7461;52.440;13.540;2023-06-10T03:21:28;14.90;99.90
14739;DHT22;7461;52.440;13.540;2023-06-10T03:23:55;14.90;99.90
14739;DHT22;7461;52.440;13.540;2023-06-10T03:26:22;14.90;99.90
14739;DHT22;7461;52.440;13.540;2023-06-10T03:28:49;14.80;99.90
14739;DHT22;7461;52.440;13.540;2023-06-10T03:31:16;14.80;99.90
14739;DHT22;7461;52.440;13.540;2023-06-10T03:33:43;14.80;99.90
14739;DHT22;7461;52.440;13.540;2023-06-10T03:36:10;14.80;99.90
14739;DHT22;7461;52.440;13.540;2023-06-10T03:38:38;14.80;99.90
14739;DHT22;7461;52.440;13.540;2023-06-10T03:41:05;14.80;99.90
14739;DHT22;7461;52.440;13.540;2023-06-10T03:43:32;14.80;99.90
14739;DHT22;7461;52.440;13.540;2023-06-10T03:45:59;14.80;99.90
14739;DHT22;7461;52.440;13.540;2023-06-10T03:48:26;14.80;99.90
14739;DHT22;7461;52.440;13.540;2023-06-10T03:50:53;14.80;99.90
14739;DHT22;7461;52.440;13.540;2023-06-10T03:53:20;14.90;99.90
14739;DHT22;7461;52.440;13.540;2023-06-10T03:55:48;14.90;99.90
14739;DHT22;7461;52.440;13.540;2023-06-10T03:58:15;14.90;99.90
14739;DHT22;7461;52.440;13.540;2023-06-10T04:00:43;14.90;99.90
14739;DHT22;7461;52.440;13.540;2023-06-10T04:03:11;14.90;99.90
14739;DHT22;7461;52.440;13.540;2023-06-10T04:05:40;14.90;99.90
14739;DHT22;7461;52.440;13.540;2023-06-10T04:08:07;14.90;99.90
14739;DHT22;7461;52.440;13.540;2023-06-10T04:10:34;14.90;99.90
14739;DHT22;7461;52.440;13.540;2023-06-10T04:13:02;15.00;99.90
14739;DHT22;7461;52.440;13.540;2023-06-10T04:15:29;15.00;99.90
14739;DHT22;7461;52.440;13.540;2023-06-10T04:17:58;15.00;99.90
14739;DHT22;7461;52.440;13.540;2023-06-10T04:20:25;15.10;99.90
14739;DHT22;7461;52.440;13.540;2023-06-10T04:22:52;15.10;99.90
14739;DHT22;7461;52.440;13.540;2023-06-10T04:25:19;15.10;99.90
14739;DHT22;7461;52.440;13.540;2023-06-10T04:27:46;15.20;99.90
14739;DHT22;7461;52.440;13.540;2023-06-10T04:30:16;15.20;99.90
14739;DHT22;7461;52.440;13.540;2023-06-10T04:32:43;15.20;99.90
14739;DHT22;7461;52.440;13.540;2023-06-10T04:35:11;15.20;99.90
14739;DHT22;7461;52.440;13.540;2023-06-10T04:37:39;15.20;99.90
14739;DHT22;7461;52.440;13.540;2023-06-10T04:40:07;15.30;99.90
14739;DHT22;7461;52.440;13.540;2023-06-10T04:42:35;15.30;99.90
14739;DHT22;7461;52.440;13.540;2023-06-10T04:45:02;15.30;99.90
14739;DHT22;7461;52.440;13.540;2023-06-10T04:47:31;15.40;99.90
14739;DHT22;7461;52.440;13.540;2023-06-10T04:49:59;15.40;99.90
14739;DHT22;7461;52.440;13.540;2023-06-10T04:52:26;15.50;99.90
14739;DHT22;7461;52.440;13.540;2023-06-10T04:54:53;15.60;99.90
14739;DHT22;7461;52.440;13.540;2023-06-10T04:57:20;15.60;99.90
14739;DHT22;7461;52.440;13.540;2023-06-10T04:59:47;15.70;99.90
14739;DHT22;7461;52.440;13.540;2023-06-10T05:02:14;15.70;99.90
14739;DHT22;7461;52.440;13.540;2023-06-10T05:04:43;15.90;99.90
14739;DHT22;7461;52.440;13.540;2023-06-10T05:07:10;16.00;99.90
14739;DHT22;7461;52.440;13.540;2023-06-10T05:09:37;16.10;99.90
14739;DHT22;7461;52.440;13.540;2023-06-10T05:12:05;16.20;99.90
14739;DHT22;7461;52.440;13.540;2023-06-10T05:14:32;16.40;99.90
14739;DHT22;7461;52.440;13.540;2023-06-10T05:16:59;16.50;99.90
14739;DHT22;7461;52.440;13.540;2023-06-10T05:19:26;16.60;99.90
14739;DHT22;7461;52.440;13.540;2023-06-10T05:21:54;16.80;99.90
14739;DHT22;7461;52.440;13.540;2023-06-10T05:24:21;16.90;99.90
14739;DHT22;7461;52.440;13.540;2023-06-10T05:26:48;16.90;99.90
14739;DHT22;7461;52.440;13.540;2023-06-10T05:29:16;17.10;99.90
14739;DHT22;7461;52.440;13.540;2023-06-10T05:31:43;17.20;99.90
14739;DHT22;7461;52.440;13.540;2023-06-10T05:34:11;17.30;99.90
14739;DHT22;7461;52.440;13.540;2023-06-10T05:36:38;17.40;99.90
14739;DHT22;7461;52.440;13.540;2023-06-10T05:39:06;17.50;99.90
14739;DHT22;7461;52.440;13.540;2023-06-10T05:41:33;17.60;99.90
14739;DHT22;7461;52.440;13.540;2023-06-10T05:44:00;17.80;99.90
14739;DHT22;7461;52.440;13.540;2023-06-10T05:46:27;17.90;99.90
14739;DHT22;7461;52.440;13.540;2023-06-10T05:48:53;18.00;99.90
14739;DHT22;7461;52.440;13.540;2023-06-10T05:51:20;18.10;99.90
14739;DHT22;7461;52.440;13.540;2023-06-10T05:53:47;18.30;99.90
14739;DHT22;7461;52.440;13.540;2023-06-10T05:56:15;18.40;99.90
14739;DHT22;7461;52.440;13.540;2023-06-10T05:58:43;18.40;99.90
14739;DHT22;7461;52.440;13.540;2023-06-10T06:01:10;18.50;99.90
14739;DHT22;7461;52.440;13.540;2023-06-10T06:03:37;18.60;99.90
14739;DHT22;7461;52.440;13.540;2023-06-10T06:06:04;18.70;99.90
14739;DHT22;7461;52.440;13.540;2023-06-10T06:08:31;18.80;99.90
14739;DHT22;7461;52.440;13.540;2023-06-10T06:10:58;18.90;99.90
14739;DHT22;7461;52.440;13.540;2023-06-10T06:13:26;19.00;99.90
14739;DHT22;7461;52.440;13.540;2023-06-10T06:15:53;19.10;99.90
14739;DHT22;7461;52.440;13.540;2023-06-10T06:18:20;19.20;99.90
14739;DHT22;7461;52.440;13.540;2023-06-10T06:20:47;19.20;99.90
14739;DHT22;7461;52.440;13.540;2023-06-10T06:23:14;19.40;99.90
14739;DHT22;7461;52.440;13.540;2023-06-10T06:25:41;19.40;99.90
14739;DHT22;7461;52.440;13.540;2023-06-10T06:28:09;19.50;99.90
14739;DHT22;7461;52.440;13.540;2023-06-10T06:30:37;19.50;99.90
14739;DHT22;7461;52.440;13.540;2023-06-10T06:33:04;19.60;99.90
14739;DHT22;7461;52.440;13.540;2023-06-10T06:35:32;19.60;99.90
14739;DHT22;7461;52.440;13.540;2023-06-10T06:37:59;19.60;99.90
14739;DHT22;7461;52.440;13.540;2023-06-10T06:40:26;19.70;99.90
14739;DHT22;7461;52.440;13.540;2023-06-10T06:42:53;19.70;99.90
14739;DHT22;7461;52.440;13.540;2023-06-10T06:45:20;19.70;99.90
14739;DHT22;7461;52.440;13.540;2023-06-10T06:47:48;19.80;99.90
14739;DHT22;7461;52.440;13.540;2023-06-10T06:50:15;19.90;99.90
14739;DHT22;7461;52.440;13.540;2023-06-10T06:52:43;19.90;99.90
14739;DHT22;7461;52.440;13.540;2023-06-10T06:55:10;19.90;99.90
14739;DHT22;7461;52.440;13.540;2023-06-10T06:57:37;20.00;99.90
14739;DHT22;7461;52.440;13.540;2023-06-10T07:00:05;20.00;99.90
14739;DHT22;7461;52.440;13.540;2023-06-10T07:02:33;20.00;99.90
14739;DHT22;7461;52.440;13.540;2023-06-10T07:05:02;20.10;99.90
14739;DHT22;7461;52.440;13.540;2023-06-10T07:07:29;20.20;99.90
14739;DHT22;7461;52.440;13.540;2023-06-10T07:09:56;20.20;99.90
14739;DHT22;7461;52.440;13.540;2023-06-10T07:12:22;20.30;99.90
14739;DHT22;7461;52.440;13.540;2023-06-10T07:14:50;20.40;99.90
14739;DHT22;7461;52.440;13.540;2023-06-10T07:17:17;20.50;99.90
14739;DHT22;7461;52.440;13.540;2023-06-10T07:19:44;20.60;99.90
14739;DHT22;7461;52.440;13.540;2023-06-10T07:22:14;20.70;99.90
14739;DHT22;7461;52.440;13.540;2023-06-10T07:24:41;20.90;99.90
14739;DHT22;7461;52.440;13.540;2023-06-10T07:27:09;21.00;99.90
14739;DHT22;7461;52.440;13.540;2023-06-10T07:29:35;21.10;99.90
14739;DHT22;7461;52.440;13.540;2023-06-10T07:32:03;21.20;99.90
14739;DHT22;7461;52.440;13.540;2023-06-10T07:34:30;21.40;99.90
14739;DHT22;7461;52.440;13.540;2023-06-10T07:36:57;21.50;99.90
14739;DHT22;7461;52.440;13.540;2023-06-10T07:39:25;21.70;99.90
14739;DHT22;7461;52.440;13.540;2023-06-10T07:41:52;21.70;99.90
14739;DHT22;7461;52.440;13.540;2023-06-10T07:44:22;21.70;99.90
14739;DHT22;7461;52.440;13.540;2023-06-10T07:46:49;21.80;99.90
14739;DHT22;7461;52.440;13.540;2023-06-10T07:49:16;22.00;99.90
14739;DHT22;7461;52.440;13.540;2023-06-10T07:51:43;22.20;99.90
14739;DHT22;7461;52.440;13.540;2023-06-10T07:54:10;22.30;99.90
14739;DHT22;7461;52.440;13.540;2023-06-10T07:56:40;22.50;99.90
14739;DHT22;7461;52.440;13.540;2023-06-10T07:59:07;22.50;99.90
14739;DHT22;7461;52.440;13.540;2023-06-10T08:01:34;22.50;99.90
14739;DHT22;7461;52.440;13.540;2023-06-10T08:04:01;22.50;99.90
14739;DHT22;7461;52.440;13.540;2023-06-10T08:06:30;22.50;99.90
14739;DHT22;7461;52.440;13.540;2023-06-10T08:08:56;22.40;99.90
14739;DHT22;7461;52.440;13.540;2023-06-10T08:11:23;22.50;99.90
14739;DHT22;7461;52.440;13.540;2023-06-10T08:13:54;22.50;99.90
14739;DHT22;7461;52.440;13.540;2023-06-10T08:16:21;22.60;99.90
14739;DHT22;7461;52.440;13.540;2023-06-10T08:18:48;22.70;99.90
14739;DHT22;7461;52.440;13.540;2023-06-10T08:21:15;22.80;99.90
14739;DHT22;7461;52.440;13.540;2023-06-10T08:23:42;22.90;99.90
14739;DHT22;7461;52.440;13.540;2023-06-10T08:26:09;23.00;99.90
14739;DHT22;7461;52.440;13.540;2023-06-10T08:28:36;23.00;99.90
14739;DHT22;7461;52.440;13.540;2023-06-10T08:31:04;23.10;99.90
14739;DHT22;7461;52.440;13.540;2023-06-10T08:33:31;23.20;99.90
14739;DHT22;7461;52.440;13.540;2023-06-10T08:35:58;23.30;99.90
14739;DHT22;7461;52.440;13.540;2023-06-10T08:38:25;23.40;99.90
14739;DHT22;7461;52.440;13.540;2023-06-10T08:40:56;23.40;99.90
14739;DHT22;7461;52.440;13.540;2023-06-10T08:43:32;23.60;99.90
14739;DHT22;7461;52.440;13.540;2023-06-10T08:46:01;23.70;99.90
14739;DHT22;7461;52.440;13.540;2023-06-10T08:48:30;23.80;99.90
14739;DHT22;7461;52.440;13.540;2023-06-10T08:50:57;24.00;99.90
14739;DHT22;7461;52.440;13.540;2023-06-10T08:53:26;24.20;99.90
14739;DHT22;7461;52.440;13.540;2023-06-10T08:55:55;24.40;99.90
14739;DHT22;7461;52.440;13.540;2023-06-10T08:58:26;24.60;99.90
14739;DHT22;7461;52.440;13.540;2023-06-10T09:00:54;24.50;99.90
14739;DHT22;7461;52.440;13.540;2023-06-10T09:03:21;24.60;99.90
14739;DHT22;7461;52.440;13.540;2023-06-10T09:05:51;24.70;99.90
14739;DHT22;7461;52.440;13.540;2023-06-10T09:08:18;24.80;99.90
14739;DHT22;7461;52.440;13.540;2023-06-10T09:10:45;25.00;99.50
14739;DHT22;7461;52.440;13.540;2023-06-10T09:13:12;24.90;98.70
14739;DHT22;7461;52.440;13.540;2023-06-10T09:15:41;25.00;99.20
14739;DHT22;7461;52.440;13.540;2023-06-10T09:18:08;25.10;98.10
14739;DHT22;7461;52.440;13.540;2023-06-10T09:20:35;25.30;98.10
14739;DHT22;7461;52.440;13.540;2023-06-10T09:23:03;25.40;98.40
14739;DHT22;7461;52.440;13.540;2023-06-10T09:25:37;25.60;96.40
14739;DHT22;7461;52.440;13.540;2023-06-10T09:28:08;25.60;96.40
14739;DHT22;7461;52.440;13.540;2023-06-10T09:30:39;25.80;96.30
14739;DHT22;7461;52.440;13.540;2023-06-10T09:33:10;25.90;96.00
14739;DHT22;7461;52.440;13.540;2023-06-10T09:35:45;26.00;94.80
14739;DHT22;7461;52.440;13.540;2023-06-10T09:38:15;26.00;93.90
14739;DHT22;7461;52.440;13.540;2023-06-10T09:40:50;26.00;93.30
14739;DHT22;7461;52.440;13.540;2023-06-10T09:43:17;25.90;92.50
14739;DHT22;7461;52.440;13.540;2023-06-10T09:45:47;25.90;93.70
14739;DHT22;7461;52.440;13.540;2023-06-10T09:48:15;26.00;93.00
14739;DHT22;7461;52.440;13.540;2023-06-10T09:50:42;26.10;92.30
14739;DHT22;7461;52.440;13.540;2023-06-10T09:53:10;26.20;92.70
14739;DHT22;7461;52.440;13.540;2023-06-10T09:55:39;26.30;91.40
14739;DHT22;7461;52.440;13.540;2023-06-10T09:58:06;26.20;90.70
14739;DHT22;7461;52.440;13.540;2023-06-10T10:00:33;26.10;90.10
14739;DHT22;7461;52.440;13.540;2023-06-10T10:03:01;26.10;89.70
14739;DHT22;7461;52.440;13.540;2023-06-10T10:05:29;26.30;90.00
14739;DHT22;7461;52.440;13.540;2023-06-10T10:07:56;26.50;90.60
14739;DHT22;7461;52.440;13.540;2023-06-10T10:10:23;26.50;90.60
14739;DHT22;7461;52.440;13.540;2023-06-10T10:12:54;26.60;90.40
14739;DHT22;7461;52.440;13.540;2023-06-10T10:15:24;26.50;89.40
14739;DHT22;7461;52.440;13.540;2023-06-10T10:17:58;26.20;88.50
14739;DHT22;7461;52.440;13.540;2023-06-10T10:20:29;26.00;88.20
14739;DHT22;7461;52.440;13.540;2023-06-10T10:22:58;25.70;88.10
14739;DHT22;7461;52.440;13.540;2023-06-10T10:25:28;25.40;87.60
14739;DHT22;7461;52.440;13.540;2023-06-10T10:28:04;25.30;88.20
14739;DHT22;7461;52.440;13.540;2023-06-10T10:30:37;25.50;89.80
14739;DHT22;7461;52.440;13.540;2023-06-10T10:33:08;25.50;88.50
14739;DHT22;7461;52.440;13.540;2023-06-10T10:35:36;25.60;87.10
14739;DHT22;7461;52.440;13.540;2023-06-10T10:38:05;25.70;86.20
14739;DHT22;7461;52.440;13.540;2023-06-10T10:40:33;25.90;86.50
14739;DHT22;7461;52.440;13.540;2023-06-10T10:43:02;26.10;85.90
14739;DHT22;7461;52.440;13.540;2023-06-10T10:45:29;26.30;83.40
14739;DHT22;7461;52.440;13.540;2023-06-10T10:47:56;26.50;83.50
14739;DHT22;7461;52.440;13.540;2023-06-10T10:50:24;26.60;83.00
14739;DHT22;7461;52.440;13.540;2023-06-10T10:53:00;26.50;80.20
14739;DHT22;7461;52.440;13.540;2023-06-10T10:55:28;26.40;78.30
14739;DHT22;7461;52.440;13.540;2023-06-10T10:57:56;26.30;78.10
14739;DHT22;7461;52.440;13.540;2023-06-10T11:00:32;26.40;79.30
14739;DHT22;7461;52.440;13.540;2023-06-10T11:03:03;26.40;78.30
14739;DHT22;7461;52.440;13.540;2023-06-10T11:05:38;26.50;78.60
14739;DHT22;7461;52.440;13.540;2023-06-10T11:08:10;26.60;76.80
14739;DHT22;7461;52.440;13.540;2023-06-10T11:10:38;26.70;79.40
14739;DHT22;7461;52.440;13.540;2023-06-10T11:13:07;26.80;77.40
14739;DHT22;7461;52.440;13.540;2023-06-10T11:15:39;26.90;76.40
14739;DHT22;7461;52.440;13.540;2023-06-10T11:18:14;26.90;76.00
14739;DHT22;7461;52.440;13.540;2023-06-10T11:20:55;26.90;74.40
14739;DHT22;7461;52.440;13.540;2023-06-10T11:23:41;26.80;75.10
14739;DHT22;7461;52.440;13.540;2023-06-10T11:26:16;26.80;75.20
14739;DHT22;7461;52.440;13.540;2023-06-10T11:29:05;26.90;75.40
14739;DHT22;7461;52.440;13.540;2023-06-10T11:31:42;27.00;75.90
14739;DHT22;7461;52.440;13.540;2023-06-10T11:34:09;27.00;74.60
14739;DHT22;7461;52.440;13.540;2023-06-10T11:36:38;27.10;74.20
14739;DHT22;7461;52.440;13.540;2023-06-10T11:39:08;27.10;74.30
14739;DHT22;7461;52.440;13.540;2023-06-10T11:41:37;27.10;72.40
14739;DHT22;7461;52.440;13.540;2023-06-10T11:44:07;26.90;72.50
14739;DHT22;7461;52.440;13.540;2023-06-10T11:46:36;26.90;73.60
14739;DHT22;7461;52.440;13.540;2023-06-10T11:49:04;26.90;73.20
14739;DHT22;7461;52.440;13.540;2023-06-10T11:51:33;26.90;73.60
14739;DHT22;7461;52.440;13.540;2023-06-10T11:54:00;26.90;70.40
14739;DHT22;7461;52.440;13.540;2023-06-10T11:56:31;26.70;70.40
14739;DHT22;7461;52.440;13.540;2023-06-10T11:58:59;26.80;69.80
14739;DHT22;7461;52.440;13.540;2023-06-10T12:01:30;26.80;70.50
14739;DHT22;7461;52.440;13.540;2023-06-10T12:04:01;26.70;70.90
14739;DHT22;7461;52.440;13.540;2023-06-10T12:06:38;26.70;70.70
14739;DHT22;7461;52.440;13.540;2023-06-10T12:09:05;26.60;71.90
14739;DHT22;7461;52.440;13.540;2023-06-10T12:11:33;26.60;72.60
14739;DHT22;7461;52.440;13.540;2023-06-10T12:14:00;26.60;73.10
14739;DHT22;7461;52.440;13.540;2023-06-10T12:16:28;26.60;74.20
14739;DHT22;7461;52.440;13.540;2023-06-10T12:19:02;26.70;74.20
14739;DHT22;7461;52.440;13.540;2023-06-10T12:21:31;26.90;75.30
14739;DHT22;7461;52.440;13.540;2023-06-10T12:24:06;26.90;75.60
14739;DHT22;7461;52.440;13.540;2023-06-10T12:26:37;27.00;75.10
14739;DHT22;7461;52.440;13.540;2023-06-10T12:29:22;26.90;74.60
14739;DHT22;7461;52.440;13.540;2023-06-10T12:32:00;27.00;76.40
14739;DHT22;7461;52.440;13.540;2023-06-10T12:34:35;27.20;74.50
14739;DHT22;7461;52.440;13.540;2023-06-10T12:37:03;27.30;74.00
14739;DHT22;7461;52.440;13.540;2023-06-10T12:39:32;27.20;73.60
14739;DHT22;7461;52.440;13.540;2023-06-10T12:42:00;27.20;72.80
14739;DHT22;7461;52.440;13.540;2023-06-10T12:44:31;27.20;72.80
14739;DHT22;7461;52.440;13.540;2023-06-10T12:46:58;27.40;72.60
14739;DHT22;7461;52.440;13.540;2023-06-10T12:49:25;27.40;71.20
14739;DHT22;7461;52.440;13.540;2023-06-10T12:51:54;27.40;70.60
14739;DHT22;7461;52.440;13.540;2023-06-10T12:54:21;27.50;69.80
14739;DHT22;7461;52.440;13.540;2023-06-10T12:56:48;27.50;70.30
14739;DHT22;7461;52.440;13.540;2023-06-10T12:59:15;27.40;71.60
14739;DHT22;7461;52.440;13.540;2023-06-10T13:01:43;27.40;71.90
14739;DHT22;7461;52.440;13.540;2023-06-10T13:04:10;27.30;71.30
14739;DHT22;7461;52.440;13.540;2023-06-10T13:06:37;27.20;73.00
14739;DHT22;7461;52.440;13.540;2023-06-10T13:09:06;27.20;70.80
14739;DHT22;7461;52.440;13.540;2023-06-10T13:11:34;27.30;71.70
14739;DHT22;7461;52.440;13.540;2023-06-10T13:14:02;27.40;72.00
14739;DHT22;7461;52.440;13.540;2023-06-10T13:16:30;27.40;72.50
14739;DHT22;7461;52.440;13.540;2023-06-10T13:18:57;27.40;71.90
14739;DHT22;7461;52.440;13.540;2023-06-10T13:21:24;27.30;69.90
14739;DHT22;7461;52.440;13.540;2023-06-10T13:23:51;27.20;69.60
14739;DHT22;7461;52.440;13.540;2023-06-10T13:26:20;27.30;70.30
14739;DHT22;7461;52.440;13.540;2023-06-10T13:28:47;27.30;66.10
14739;DHT22;7461;52.440;13.540;2023-06-10T13:31:14;27.20;68.40
14739;DHT22;7461;52.440;13.540;2023-06-10T13:33:41;27.30;70.00
14739;DHT22;7461;52.440;13.540;2023-06-10T13:36:09;27.40;69.50
14739;DHT22;7461;52.440;13.540;2023-06-10T13:38:37;27.50;68.40
14739;DHT22;7461;52.440;13.540;2023-06-10T13:41:04;27.60;67.50
14739;DHT22;7461;52.440;13.540;2023-06-10T13:43:33;27.70;68.90
14739;DHT22;7461;52.440;13.540;2023-06-10T13:46:00;27.60;69.10
14739;DHT22;7461;52.440;13.540;2023-06-10T13:48:27;27.60;71.40
14739;DHT22;7461;52.440;13.540;2023-06-10T13:50:54;27.50;68.70
14739;DHT22;7461;52.440;13.540;2023-06-10T13:53:21;27.00;69.00
14739;DHT22;7461;52.440;13.540;2023-06-10T13:55:48;26.40;67.30
14739;DHT22;7461;52.440;13.540;2023-06-10T13:58:15;26.00;69.60
14739;DHT22;7461;52.440;13.540;2023-06-10T14:00:44;25.90;68.10
14739;DHT22;7461;52.440;13.540;2023-06-10T14:03:11;25.90;67.90
14739;DHT22;7461;52.440;13.540;2023-06-10T14:05:38;26.20;67.90
14739;DHT22;7461;52.440;13.540;2023-06-10T14:08:05;26.40;67.70
14739;DHT22;7461;52.440;13.540;2023-06-10T14:10:32;26.70;67.00
14739;DHT22;7461;52.440;13.540;2023-06-10T14:12:58;27.10;67.90
14739;DHT22;7461;52.440;13.540;2023-06-10T14:15:26;27.30;66.70
14739;DHT22;7461;52.440;13.540;2023-06-10T14:17:54;27.40;68.70
14739;DHT22;7461;52.440;13.540;2023-06-10T14:20:21;27.20;68.60
14739;DHT22;7461;52.440;13.540;2023-06-10T14:22:48;27.10;68.30
14739;DHT22;7461;52.440;13.540;2023-06-10T14:25:15;27.00;69.10
14739;DHT22;7461;52.440;13.540;2023-06-10T14:27:43;26.80;68.50
14739;DHT22;7461;52.440;13.540;2023-06-10T14:30:13;26.90;69.80
14739;DHT22;7461;52.440;13.540;2023-06-10T14:32:40;27.00;68.00
14739;DHT22;7461;52.440;13.540;2023-06-10T14:35:08;27.20;68.80
14739;DHT22;7461;52.440;13.540;2023-06-10T14:37:35;27.30;68.30
14739;DHT22;7461;52.440;13.540;2023-06-10T14:40:03;27.30;67.50
14739;DHT22;7461;52.440;13.540;2023-06-10T14:42:30;27.40;66.60
14739;DHT22;7461;52.440;13.540;2023-06-10T14:44:58;27.40;67.10
14739;DHT22;7461;52.440;13.540;2023-06-10T14:47:25;27.30;66.80
14739;DHT22;7461;52.440;13.540;2023-06-10T14:49:52;27.40;66.60
14739;DHT22;7461;52.440;13.540;2023-06-10T14:52:20;27.50;65.50
14739;DHT22;7461;52.440;13.540;2023-06-10T14:54:47;27.60;66.40
14739;DHT22;7461;52.440;13.540;2023-06-10T14:57:14;27.60;63.70
14739;DHT22;7461;52.440;13.540;2023-06-10T14:59:41;27.70;65.90
14739;DHT22;7461;52.440;13.540;2023-06-10T15:02:08;27.70;63.60
14739;DHT22;7461;52.440;13.540;2023-06-10T15:04:35;27.70;63.70
14739;DHT22;7461;52.440;13.540;2023-06-10T15:07:02;27.80;62.70
14739;DHT22;7461;52.440;13.540;2023-06-10T15:09:30;27.80;61.30
14739;DHT22;7461;52.440;13.540;2023-06-10T15:11:57;27.90;61.60
14739;DHT22;7461;52.440;13.540;2023-06-10T15:14:25;27.90;60.40
14739;DHT22;7461;52.440;13.540;2023-06-10T15:16:52;28.00;60.60
14739;DHT22;7461;52.440;13.540;2023-06-10T15:19:19;28.10;58.70
14739;DHT22;7461;52.440;13.540;2023-06-10T15:21:46;28.00;57.90
14739;DHT22;7461;52.440;13.540;2023-06-10T15:24:13;28.00;57.80
14739;DHT22;7461;52.440;13.540;2023-06-10T15:26:42;28.00;59.10
14739;DHT22;7461;52.440;13.540;2023-06-10T15:29:09;28.10;58.50
14739;DHT22;7461;52.440;13.540;2023-06-10T15:31:36;28.10;57.60
14739;DHT22;7461;52.440;13.540;2023-06-10T15:34:03;28.10;57.70
14739;DHT22;7461;52.440;13.540;2023-06-10T15:36:30;28.20;56.60